createdAt,value
2019-02-25T00:00:50.659Z,102697.09
2019-02-25T00:03:18.817Z,102692.73
2019-02-25T00:05:47.057Z,102681.95
2019-02-25T00:08:15.270Z,102683.58
2019-02-25T00:10:43.451Z,102675.92
2019-02-25T00:13:11.741Z,102668.98
2019-02-25T00:15:40.121Z,102673.22
2019-02-25T00:18:08.262Z,102510.16
2019-02-25T00:20:36.525Z,102654.02
2019-02-25T00:23:04.857Z,102654.22
2019-02-25T00:25:32.984Z,102660.86
2019-02-25T00:28:01.472Z,102659.28
2019-02-25T00:30:29.618Z,102649.83
2019-02-25T00:32:57.834Z,102658.76
2019-02-25T00:35:25.898Z,102658.23
2019-02-25T00:37:54.106Z,102656.91
2019-02-25T00:40:22.304Z,102664.47
2019-02-25T00:42:50.436Z,102667.84
2019-02-25T00:45:18.694Z,102662.45
2019-02-25T00:47:47.014Z,102662.98
2019-02-25T00:50:15.241Z,102661.62
2019-02-25T00:52:43.537Z,102666.16
2019-02-25T00:55:11.932Z,102665.51
2019-02-25T00:57:40.080Z,102670.67
2019-02-25T01:00:11.082Z,102665.43
2019-02-25T01:02:39.195Z,102668.91
2019-02-25T01:05:07.723Z,102673.83
2019-02-25T01:07:35.837Z,102672.02
2019-02-25T01:10:04.702Z,102680.59
2019-02-25T01:12:32.840Z,102670.52
2019-02-25T01:15:01.023Z,102669.58
2019-02-25T01:17:29.295Z,102658.07
2019-02-25T01:19:57.448Z,102650.17
2019-02-25T01:22:25.615Z,102654.03
2019-02-25T01:24:53.826Z,102651.13
2019-02-25T01:27:22.271Z,102648.72
2019-02-25T01:29:50.378Z,102647.44
2019-02-25T01:32:18.601Z,102647.28
2019-02-25T01:34:46.783Z,102644.64
2019-02-25T01:37:14.889Z,102633.82
2019-02-25T01:39:43.322Z,102635.12
2019-02-25T01:42:11.514Z,102635.40
2019-02-25T01:44:39.675Z,102638.58
2019-02-25T01:47:07.929Z,102631.53
2019-02-25T01:49:36.148Z,102634.05
2019-02-25T01:52:04.292Z,102632.80
2019-02-25T01:54:32.491Z,102628.73
2019-02-25T01:57:00.690Z,102623.55
2019-02-25T01:59:28.905Z,102619.83
2019-02-25T02:01:57.089Z,102615.25
2019-02-25T02:04:25.289Z,102609.98
2019-02-25T02:06:53.439Z,102605.27
2019-02-25T02:09:21.600Z,102604.16
2019-02-25T02:11:49.801Z,102606.23
2019-02-25T02:14:18.063Z,102607.72
2019-02-25T02:16:46.242Z,102605.98
2019-02-25T02:19:14.659Z,102613.86
2019-02-25T02:21:42.847Z,102612.71
2019-02-25T02:24:11.085Z,102616.05
2019-02-25T02:26:39.266Z,102619.21
2019-02-25T02:29:07.491Z,102615.20
2019-02-25T02:31:35.674Z,102616.39
2019-02-25T02:34:03.817Z,102617.94
2019-02-25T02:36:32.039Z,102615.95
2019-02-25T02:39:00.196Z,102619.75
2019-02-25T02:41:28.400Z,102632.10
2019-02-25T02:43:56.546Z,102638.59
2019-02-25T02:46:52.589Z,102641.65
2019-02-25T02:49:20.797Z,102642.39
2019-02-25T02:51:48.980Z,102635.50
2019-02-25T02:54:17.332Z,102629.66
2019-02-25T02:56:45.488Z,102630.76
2019-02-25T02:59:13.636Z,102625.89
2019-02-25T03:01:41.983Z,102625.59
2019-02-25T03:04:10.143Z,102625.30
2019-02-25T03:06:38.386Z,102629.89
2019-02-25T03:11:55.737Z,102632.09
2019-02-25T03:14:23.842Z,102628.74
2019-02-25T03:16:52.103Z,102630.66
2019-02-25T03:19:20.285Z,102637.05
2019-02-25T03:21:48.547Z,102633.58
2019-02-25T03:24:16.823Z,102631.46
2019-02-25T03:26:45.077Z,102624.77
2019-02-25T03:29:13.296Z,102621.03
2019-02-25T03:31:41.426Z,102629.16
2019-02-25T03:34:09.596Z,102628.21
2019-02-25T03:36:37.777Z,102625.89
2019-02-25T03:39:07.261Z,102626.36
2019-02-25T03:41:35.408Z,102634.06
2019-02-25T03:44:03.637Z,102639.56
2019-02-25T03:46:31.782Z,102632.59
2019-02-25T03:48:59.921Z,102632.52
2019-02-25T03:51:28.213Z,102642.34
2019-02-25T03:53:56.389Z,102644.45
2019-02-25T03:56:24.541Z,102645.53
2019-02-25T03:58:52.718Z,102646.11
2019-02-25T04:01:20.869Z,102648.31
2019-02-25T04:03:49.215Z,102655.77
2019-02-25T04:06:17.439Z,102651.86
2019-02-25T04:08:45.559Z,102649.36
2019-02-25T04:11:13.784Z,102651.77
2019-02-25T04:13:41.943Z,102650.80
2019-02-25T04:16:10.102Z,102646.16
2019-02-25T04:18:38.295Z,102646.43
2019-02-25T04:21:06.621Z,102643.00
2019-02-25T04:23:34.796Z,102636.77
2019-02-25T04:26:03.101Z,102641.88
2019-02-25T04:28:31.193Z,102645.61
2019-02-25T04:30:59.371Z,102645.95
2019-02-25T04:33:27.542Z,102647.98
2019-02-25T04:35:55.677Z,102650.88
2019-02-25T04:38:23.815Z,102657.39
2019-02-25T04:40:52.036Z,102654.91
2019-02-25T04:43:20.327Z,102660.73
2019-02-25T04:45:48.485Z,102656.50
2019-02-25T04:48:16.680Z,102653.22
2019-02-25T04:50:44.860Z,102650.26
2019-02-25T04:53:13.183Z,102654.53
2019-02-25T04:55:41.339Z,102643.19
2019-02-25T04:58:09.542Z,102647.13
2019-02-25T05:00:37.754Z,102651.91
2019-02-25T05:03:05.849Z,102642.63
2019-02-25T05:05:34.029Z,102649.67
2019-02-25T05:08:02.139Z,102650.55
2019-02-25T05:10:30.386Z,102651.57
2019-02-25T05:13:03.227Z,102653.55
2019-02-25T05:15:31.790Z,102654.89
2019-02-25T05:17:59.974Z,102652.44
2019-02-25T05:20:28.113Z,102648.67
2019-02-25T05:22:56.288Z,102652.94
2019-02-25T05:25:24.410Z,102652.94
2019-02-25T05:27:52.617Z,102649.42
2019-02-25T05:30:20.702Z,102650.16
2019-02-25T05:32:48.906Z,102645.09
2019-02-25T05:35:16.992Z,102648.09
2019-02-25T05:37:45.139Z,102651.47
2019-02-25T05:40:14.879Z,102657.04
2019-02-25T05:42:43.266Z,102655.99
2019-02-25T05:45:11.653Z,102665.18
2019-02-25T05:47:39.839Z,102664.28
2019-02-25T05:50:10.089Z,102665.18
2019-02-25T05:52:38.277Z,102658.94
2019-02-25T05:55:07.934Z,102654.41
2019-02-25T05:57:36.135Z,102651.29
2019-02-25T06:00:04.809Z,102644.58
2019-02-25T06:02:33.119Z,102646.70
2019-02-25T06:05:21.273Z,102648.76
2019-02-25T06:07:49.663Z,102643.83
2019-02-25T06:10:17.842Z,102642.60
2019-02-25T06:12:46.039Z,102643.70
2019-02-25T06:15:14.908Z,102651.80
2019-02-25T06:17:43.010Z,102650.41
2019-02-25T06:20:11.883Z,102649.18
2019-02-25T06:22:40.091Z,102640.89
2019-02-25T06:25:08.567Z,102636.80
2019-02-25T06:27:36.768Z,102637.38
2019-02-25T06:30:06.043Z,102647.07
2019-02-25T06:32:34.216Z,102652.47
2019-02-25T06:35:02.338Z,102648.52
2019-02-25T06:37:30.524Z,102647.05
2019-02-25T06:39:58.678Z,102649.02
2019-02-25T06:42:27.026Z,102651.38
2019-02-25T06:44:55.269Z,102652.79
2019-02-25T06:47:23.438Z,102653.74
2019-02-25T06:49:51.691Z,102654.10
2019-02-25T06:52:20.215Z,102660.09
2019-02-25T06:54:48.415Z,102656.73
2019-02-25T06:57:16.658Z,102662.75
2019-02-25T06:59:44.864Z,102662.50
2019-02-25T07:02:13.097Z,102668.23
2019-02-25T07:04:48.809Z,102668.91
2019-02-25T07:07:35.977Z,102668.20
2019-02-25T07:10:22.013Z,102673.88
2019-02-25T07:13:06.277Z,102672.14
2019-02-25T07:15:53.419Z,102665.30
2019-02-25T07:18:40.719Z,102673.58
2019-02-25T07:21:26.786Z,102676.09
2019-02-25T07:24:16.772Z,102679.70
2019-02-25T07:27:07.138Z,102682.25
2019-02-25T07:29:54.270Z,102690.41
2019-02-25T07:32:39.412Z,102696.09
2019-02-25T07:35:16.527Z,102696.19
2019-02-25T07:38:16.294Z,102701.91
2019-02-25T07:41:09.609Z,102705.11
2019-02-25T07:44:05.722Z,102696.97
2019-02-25T07:46:47.503Z,102705.80
2019-02-25T07:49:37.827Z,102706.92
2019-02-25T07:52:33.846Z,102708.16
2019-02-25T07:55:21.074Z,102708.64
2019-02-25T07:57:58.935Z,102718.09
2019-02-25T08:00:46.152Z,102721.34
2019-02-25T08:03:48.304Z,102723.58
2019-02-25T08:06:31.723Z,102719.17
2019-02-25T08:09:18.743Z,102720.45
2019-02-25T08:11:58.962Z,102723.13
2019-02-25T08:14:48.999Z,102720.23
2019-02-25T08:17:34.837Z,102721.22
2019-02-25T08:20:19.557Z,102712.69
2019-02-25T08:23:06.892Z,102706.05
2019-02-25T08:25:44.920Z,102716.46
2019-02-25T08:28:32.601Z,102710.34
2019-02-25T08:31:18.586Z,102709.13
2019-02-25T08:34:18.134Z,102702.62
2019-02-25T08:37:42.630Z,102710.92
2019-02-25T08:40:40.042Z,102718.85
2019-02-25T08:43:42.814Z,102717.00
2019-02-25T08:46:33.043Z,102715.34
2019-02-25T08:49:04.840Z,102719.64
2019-02-25T08:51:32.990Z,102720.66
2019-02-25T08:54:01.207Z,102727.27
2019-02-25T08:56:29.436Z,102727.08
2019-02-25T08:58:57.582Z,102717.64
2019-02-25T09:01:25.809Z,102708.61
2019-02-25T09:03:54.003Z,102717.44
2019-02-25T09:06:22.221Z,102713.11
2019-02-25T09:08:50.424Z,102714.20
2019-02-25T09:11:18.625Z,102725.94
2019-02-25T09:13:46.765Z,102731.64
2019-02-25T09:16:15.009Z,102724.56
2019-02-25T09:18:43.141Z,102715.69
2019-02-25T09:21:11.460Z,102721.21
2019-02-25T09:23:39.563Z,102731.68
2019-02-25T09:26:07.675Z,102732.83
2019-02-25T09:28:35.855Z,102737.38
2019-02-25T09:31:05.629Z,102743.50
2019-02-25T09:33:33.953Z,102728.00
2019-02-25T09:36:02.138Z,102724.58
2019-02-25T09:38:30.358Z,102717.91
2019-02-25T09:40:58.629Z,102714.81
2019-02-25T09:43:27.167Z,102722.19
2019-02-25T09:45:55.353Z,102724.47
2019-02-25T09:48:23.757Z,102728.08
2019-02-25T09:50:51.971Z,102722.66
2019-02-25T09:53:20.220Z,102720.56
2019-02-25T09:55:48.378Z,102719.64
2019-02-25T09:58:16.665Z,102721.44
2019-02-25T10:00:46.161Z,102721.37
2019-02-25T10:03:14.461Z,102724.03
2019-02-25T10:05:42.789Z,102721.20
2019-02-25T10:08:11.129Z,102721.95
2019-02-25T10:10:39.367Z,102721.35
2019-02-25T10:13:07.591Z,102715.53
2019-02-25T10:15:35.815Z,102717.04
2019-02-25T10:18:04.110Z,102714.23
2019-02-25T10:20:32.282Z,102718.02
2019-02-25T10:23:00.637Z,102720.64
2019-02-25T10:25:28.929Z,102720.17
2019-02-25T10:27:57.161Z,102720.72
2019-02-25T10:30:25.363Z,102720.85
2019-02-25T10:32:53.530Z,102714.92
2019-02-25T10:35:21.792Z,102712.89
2019-02-25T10:37:49.969Z,102711.45
2019-02-25T10:40:22.164Z,102708.58
2019-02-25T10:42:48.121Z,102714.11
2019-02-25T10:45:17.198Z,102704.53
2019-02-25T10:47:46.608Z,102710.38
2019-02-25T10:50:15.972Z,102700.63
2019-02-25T10:52:44.923Z,102707.58
2019-02-25T10:55:17.913Z,102701.95
2019-02-25T10:57:46.181Z,102695.27
2019-02-25T11:00:15.732Z,102694.05
2019-02-25T11:02:44.626Z,102688.34
2019-02-25T11:05:14.047Z,102690.44
2019-02-25T11:07:42.199Z,102675.92
2019-02-25T11:10:18.267Z,102677.40
2019-02-25T11:12:46.559Z,102673.45
2019-02-25T11:15:16.017Z,102667.63
2019-02-25T11:17:45.542Z,102657.31
2019-02-25T11:20:14.338Z,102658.48
2019-02-25T11:22:44.071Z,102657.55
2019-02-25T11:25:12.667Z,102658.61
2019-02-25T11:27:40.965Z,102653.16
2019-02-25T11:30:11.966Z,102646.91
2019-02-25T11:32:40.006Z,102648.16
2019-02-25T11:35:10.691Z,102641.69
2019-02-25T11:37:38.613Z,102645.85
2019-02-25T11:40:08.197Z,102639.86
2019-02-25T11:42:36.365Z,102633.02
2019-02-25T11:45:05.421Z,102626.23
2019-02-25T11:47:34.037Z,102623.98
2019-02-25T11:50:02.233Z,102618.64
2019-02-25T11:52:30.446Z,102617.83
2019-02-25T11:54:58.720Z,102610.61
2019-02-25T11:57:27.009Z,102608.94
2019-02-25T11:59:55.211Z,102600.95
2019-02-25T12:02:25.992Z,102591.56
2019-02-25T12:04:53.399Z,102587.25
2019-02-25T12:07:21.914Z,102587.92
2019-02-25T12:09:50.098Z,102582.83
2019-02-25T12:12:18.426Z,102572.19
2019-02-25T12:14:46.593Z,102580.91
2019-02-25T12:17:14.757Z,102568.67
2019-02-25T12:19:42.934Z,102566.02
2019-02-25T12:22:11.147Z,102562.52
2019-02-25T12:24:39.353Z,102557.87
2019-02-25T12:27:07.826Z,102539.44
2019-02-25T12:29:36.129Z,102537.08
2019-02-25T12:32:04.643Z,102539.16
2019-02-25T12:34:32.821Z,102536.73
2019-02-25T12:37:01.217Z,102538.37
2019-02-25T12:39:29.464Z,102526.05
2019-02-25T12:41:57.676Z,102523.23
2019-02-25T12:44:26.221Z,102519.72
2019-02-25T12:46:54.391Z,102512.21
2019-02-25T12:49:22.677Z,102511.73
2019-02-25T12:51:50.783Z,102508.95
2019-02-25T12:54:19.100Z,102512.30
2019-02-25T12:56:47.494Z,102507.55
2019-02-25T12:59:15.695Z,102510.99
2019-02-25T13:01:43.881Z,102502.45
2019-02-25T13:04:12.050Z,102496.38
2019-02-25T13:06:40.338Z,102497.09
2019-02-25T13:09:13.468Z,102500.19
2019-02-25T13:11:41.682Z,102503.00
2019-02-25T13:14:09.859Z,102504.66
2019-02-25T13:16:38.150Z,102503.72
2019-02-25T13:19:06.379Z,102499.24
2019-02-25T13:21:34.706Z,102499.66
2019-02-25T13:24:04.607Z,102494.27
2019-02-25T13:26:33.997Z,102496.48
2019-02-25T13:29:02.776Z,102494.34
2019-02-25T13:31:31.026Z,102496.92
2019-02-25T13:34:00.404Z,102484.47
2019-02-25T13:36:28.616Z,102481.56
2019-02-25T13:38:56.843Z,102474.30
2019-02-25T13:41:25.319Z,102466.28
2019-02-25T13:43:53.506Z,102470.01
2019-02-25T13:46:21.835Z,102474.87
2019-02-25T13:48:50.066Z,102477.42
2019-02-25T13:51:18.261Z,102474.16
2019-02-25T13:53:46.447Z,102475.21
2019-02-25T13:56:14.803Z,102474.13
2019-02-25T13:58:43.435Z,102478.02
2019-02-25T14:01:13.091Z,102478.02
2019-02-25T14:03:41.452Z,102480.34
2019-02-25T14:06:09.917Z,102473.05
2019-02-25T14:08:38.071Z,102481.47
2019-02-25T14:11:06.405Z,102481.86
2019-02-25T14:13:34.613Z,102480.48
2019-02-25T14:16:02.934Z,102483.22
2019-02-25T14:18:31.303Z,102483.27
2019-02-25T14:20:59.581Z,102484.32
2019-02-25T14:23:27.910Z,102474.41
2019-02-25T14:25:58.799Z,102479.98
2019-02-25T14:28:26.425Z,102478.80
2019-02-25T14:30:54.839Z,102470.59
2019-02-25T14:33:23.694Z,102475.29
2019-02-25T14:35:53.098Z,102470.27
2019-02-25T14:38:23.248Z,102468.69
2019-02-25T14:40:53.851Z,102464.39
2019-02-25T14:43:22.477Z,102466.70
2019-02-25T14:45:53.967Z,102459.26
2019-02-25T14:48:21.029Z,102458.05
2019-02-25T14:50:49.661Z,102458.27
2019-02-25T14:53:17.906Z,102458.98
2019-02-25T14:55:47.781Z,102461.87
2019-02-25T14:58:17.364Z,102467.52
2019-02-25T15:00:45.825Z,102469.91
2019-02-25T15:03:14.194Z,102465.20
2019-02-25T15:05:42.766Z,102473.29
2019-02-25T15:08:11.300Z,102470.61
2019-02-25T15:10:40.784Z,102476.67
2019-02-25T15:13:10.598Z,102474.84
2019-02-25T15:15:41.129Z,102472.80
2019-02-25T15:18:09.908Z,102468.92
2019-02-25T15:20:38.222Z,102459.84
2019-02-25T15:23:07.507Z,102460.38
2019-02-25T15:25:36.593Z,102460.37
2019-02-25T15:28:09.365Z,102458.62
2019-02-25T15:30:35.698Z,102456.55
2019-02-25T15:33:03.911Z,102455.28
2019-02-25T15:35:34.576Z,102455.17
2019-02-25T15:38:02.023Z,102452.15
2019-02-25T15:40:30.290Z,102455.48
2019-02-25T15:43:03.352Z,102449.42
2019-02-25T15:45:35.002Z,102451.38
2019-02-25T15:48:03.475Z,102441.29
2019-02-25T15:50:32.086Z,102447.41
2019-02-25T15:53:02.791Z,102443.33
2019-02-25T15:55:31.090Z,102444.98
2019-02-25T15:57:59.327Z,102439.00
2019-02-25T16:00:30.048Z,102432.80
2019-02-25T16:02:58.985Z,102436.23
2019-02-25T16:05:29.522Z,102431.19
2019-02-25T16:08:00.664Z,102436.09
2019-02-25T16:10:28.569Z,102433.20
2019-02-25T16:12:57.762Z,102442.06
2019-02-25T16:15:27.236Z,102433.03
2019-02-25T16:17:56.403Z,102438.25
2019-02-25T16:20:25.506Z,102444.64
2019-02-25T16:22:56.349Z,102440.64
2019-02-25T16:25:25.243Z,102435.41
2019-02-25T16:27:54.239Z,102439.77
2019-02-25T16:30:25.799Z,102437.64
2019-02-25T16:32:53.659Z,102434.02
2019-02-25T16:35:21.994Z,102438.77
2019-02-25T16:37:50.754Z,102442.04
2019-02-25T16:40:20.256Z,102442.04
2019-02-25T16:42:54.991Z,102445.00
2019-02-25T16:45:22.043Z,102444.91
2019-02-25T16:47:50.267Z,102445.11
2019-02-25T16:50:19.282Z,102440.76
2019-02-25T16:52:49.364Z,102439.31
2019-02-25T16:55:19.979Z,102440.30
2019-02-25T16:57:48.226Z,102446.98
2019-02-25T17:00:17.516Z,102442.70
2019-02-25T17:02:47.733Z,102447.05
2019-02-25T17:05:15.810Z,102443.08
2019-02-25T17:07:44.716Z,102454.26
2019-02-25T17:10:16.143Z,102451.48
2019-02-25T17:12:45.707Z,102450.52
2019-02-25T17:15:15.896Z,102452.98
2019-02-25T17:17:44.087Z,102451.96
2019-02-25T17:20:14.022Z,102452.42
2019-02-25T17:22:42.417Z,102456.55
2019-02-25T17:25:12.086Z,102457.10
2019-02-25T17:27:40.945Z,102453.25
2019-02-25T17:30:15.191Z,102460.52
2019-02-25T17:32:44.135Z,102457.09
2019-02-25T17:35:14.994Z,102461.20
2019-02-25T17:37:43.552Z,102463.07
2019-02-25T17:40:13.122Z,102465.39
2019-02-25T17:42:41.615Z,102468.20
2019-02-25T17:45:12.670Z,102465.60
2019-02-25T17:47:41.932Z,102482.23
2019-02-25T17:50:11.852Z,102478.25
2019-02-25T17:52:42.535Z,102480.11
2019-02-25T17:55:12.970Z,102476.16
2019-02-25T17:57:41.246Z,102479.79
2019-02-25T18:02:57.167Z,102475.81
2019-02-25T18:05:26.177Z,102477.17
2019-02-25T18:07:54.500Z,102473.66
2019-02-25T18:10:24.724Z,102477.69
2019-02-25T18:12:54.563Z,102477.23
2019-02-25T18:15:26.172Z,102479.47
2019-02-25T18:17:55.480Z,102481.70
2019-02-25T18:20:24.413Z,102480.34
2019-02-25T18:22:52.803Z,102477.63
2019-02-25T18:25:21.147Z,102478.98
2019-02-25T18:27:50.470Z,102479.84
2019-02-25T18:30:20.979Z,102486.91
2019-02-25T18:32:50.468Z,102485.59
2019-02-25T18:35:21.197Z,102482.45
2019-02-25T18:37:50.012Z,102479.29
2019-02-25T18:40:20.681Z,102477.87
2019-02-25T18:42:48.421Z,102478.22
2019-02-25T18:45:18.433Z,102481.77
2019-02-25T18:47:50.385Z,102483.03
2019-02-25T18:50:21.760Z,102479.44
2019-02-25T18:52:52.908Z,102480.69
2019-02-25T18:55:23.268Z,102485.53
2019-02-25T18:57:53.388Z,102490.34
2019-02-25T19:00:29.969Z,102483.82
2019-02-25T19:03:00.360Z,102475.91
2019-02-25T19:05:31.453Z,102476.73
2019-02-25T19:08:02.334Z,102481.63
2019-02-25T19:10:31.208Z,102486.96
2019-02-25T19:13:03.022Z,102486.44
2019-02-25T19:15:31.838Z,102488.11
2019-02-25T19:18:00.769Z,102481.78
2019-02-25T19:20:29.717Z,102490.17
2019-02-25T19:23:02.601Z,102486.48
2019-02-25T19:25:29.588Z,102485.52
2019-02-25T19:27:58.757Z,102483.69
2019-02-25T19:30:29.775Z,102488.08
2019-02-25T19:33:09.057Z,102490.20
2019-02-25T19:35:30.456Z,102489.67
2019-02-25T19:38:01.238Z,102486.52
2019-02-25T19:40:29.409Z,102482.80
2019-02-25T19:42:59.537Z,102479.09
2019-02-25T19:45:28.016Z,102476.30
2019-02-25T19:47:58.365Z,102476.06
2019-02-25T19:50:27.703Z,102471.28
2019-02-25T19:52:56.042Z,102470.97
2019-02-25T19:55:24.450Z,102460.41
2019-02-25T19:57:52.906Z,102472.70
2019-02-25T20:00:30.267Z,102473.81
2019-02-25T20:03:05.218Z,102473.76
2019-02-25T20:05:29.315Z,102468.73
2019-02-25T20:07:57.871Z,102471.89
2019-02-25T20:10:26.094Z,102462.73
2019-02-25T20:12:55.616Z,102468.01
2019-02-25T20:15:25.238Z,102465.68
2019-02-25T20:17:55.265Z,102471.77
2019-02-25T20:23:17.323Z,102462.73
2019-02-25T20:25:48.781Z,102456.29
2019-02-25T20:28:18.643Z,102455.80
2019-02-25T20:30:48.960Z,102454.34
2019-02-25T20:33:17.631Z,102445.32
2019-02-25T20:35:51.034Z,102447.48
2019-02-25T20:38:16.851Z,102446.52
2019-02-25T20:40:50.817Z,102443.33
2019-02-25T20:43:21.267Z,102451.20
2019-02-25T20:45:52.103Z,102447.53
2019-02-25T20:48:19.129Z,102448.72
2019-02-25T20:50:48.398Z,102456.11
2019-02-25T20:53:17.007Z,102457.39
2019-02-25T20:55:45.548Z,102462.95
2019-02-25T20:58:16.256Z,102460.39
2019-02-25T21:00:46.491Z,102448.98
2019-02-25T21:03:16.027Z,102449.42
2019-02-25T21:05:46.660Z,102454.69
2019-02-25T21:08:16.911Z,102449.45
2019-02-25T21:10:46.049Z,102455.76
2019-02-25T21:13:14.456Z,102458.15
2019-02-25T21:15:45.291Z,102455.33
2019-02-25T21:18:13.398Z,102446.00
2019-02-25T21:20:43.041Z,102444.89
2019-02-25T21:23:12.547Z,102455.67
2019-02-25T21:25:41.131Z,102455.73
2019-02-25T21:28:11.253Z,102451.37
2019-02-25T21:30:41.344Z,102452.57
2019-02-25T21:33:13.335Z,102456.94
2019-02-25T21:35:40.209Z,102460.14
2019-02-25T21:38:09.461Z,102461.59
2019-02-25T21:40:37.882Z,102468.98
2019-02-25T21:43:06.275Z,102474.92
2019-02-25T21:45:34.584Z,102468.75
2019-02-25T21:48:04.789Z,102465.97
2019-02-25T21:50:34.040Z,102462.62
2019-02-25T21:53:04.910Z,102451.84
2019-02-25T21:55:34.790Z,102449.27
2019-02-25T21:58:04.849Z,102460.52
2019-02-25T22:00:35.133Z,102463.81
2019-02-25T22:03:04.493Z,102449.34
2019-02-25T22:05:32.542Z,102446.02
2019-02-25T22:08:02.274Z,102450.98
2019-02-25T22:10:34.054Z,102445.62
2019-02-25T22:13:04.382Z,102447.84
2019-02-25T22:15:31.122Z,102450.66
2019-02-25T22:17:59.344Z,102450.54
2019-02-25T22:20:27.522Z,102459.56
2019-02-25T22:22:57.434Z,102456.61
2019-02-25T22:25:25.738Z,102459.55
2019-02-25T22:27:53.965Z,102462.70
2019-02-25T22:30:22.238Z,102458.91
2019-02-25T22:32:50.638Z,102471.07
2019-02-25T22:35:19.070Z,102474.45
2019-02-25T22:37:49.623Z,102478.75
2019-02-25T22:40:17.565Z,102473.61
2019-02-25T22:42:49.830Z,102470.31
2019-02-25T22:45:18.884Z,102462.71
2019-02-25T22:47:47.043Z,102459.83
2019-02-25T22:50:15.442Z,102455.38
2019-02-25T22:52:43.535Z,102444.59
2019-02-25T22:55:12.932Z,102440.92
2019-02-25T22:57:43.468Z,102431.03
2019-02-25T23:00:52.722Z,102422.38
2019-02-25T23:03:24.571Z,102418.27
2019-02-25T23:05:53.414Z,102427.27
2019-02-25T23:08:23.413Z,102427.36
2019-02-25T23:10:52.296Z,102421.94
2019-02-25T23:13:22.686Z,102412.95
2019-02-25T23:15:51.721Z,102403.55
2019-02-25T23:18:22.894Z,102411.99
2019-02-25T23:20:54.454Z,102413.33
2019-02-25T23:23:23.466Z,102410.48
2019-02-25T23:25:51.406Z,102406.52
2019-02-25T23:28:22.919Z,102415.17
2019-02-25T23:30:50.846Z,102415.73
2019-02-25T23:33:21.832Z,102413.38
2019-02-25T23:35:49.717Z,102416.34
2019-02-25T23:38:18.999Z,102420.14
2019-02-25T23:40:47.238Z,102410.05
2019-02-25T23:43:16.832Z,102410.80
2019-02-25T23:45:46.381Z,102415.19
2019-02-25T23:48:14.565Z,102418.05
2019-02-25T23:50:42.839Z,102413.11
2019-02-25T23:53:11.005Z,102403.25
2019-02-25T23:55:39.135Z,102406.58
2019-02-25T23:58:10.267Z,102406.23
